Terminal Aerodrome Forecast
Issued by NWS

Home | Current Version | Previous Version | Text Only | Print | Product List | Glossary On
Versions: 1 2 3 4 5 6 7 8 9 10 11 12 13 14 15
000
FTUS46 KPDT 271700
TAFDLS
TAF
KDLS 271720Z 2718/2818 33005KT P6SM -SHRA SCT040 OVC070
     FM280000 30004KT P6SM -RA SCT040 OVC050
     FM281500 VRB04KT P6SM -RA BKN040=

USA.gov is the U.S. government's official web portal to all federal, state and local government web resources and services.